| Station | Date | Time | Temp (°F) | RH (%) | Dew Pt (°F) | Wind Dir (°) | Wind Spd (mph) | Wind Gust (mph) | Solar Rad (W/m2) | Pressure (mb) | Daily Min Temp (°F) | Daily Max Temp (°F) | Daily Max Wind (mph) | Daily Rain (In) | Yest MinT (°F) | Yest MaxT (°F) | Yest MaxGst (mph) | Yest Precip (In) | MinBV Day (V) |
|---|---|---|---|---|---|---|---|---|---|---|---|---|---|---|---|---|---|---|---|
| MWA Office | 5/8/26 | 0415 | 54.5 3.4 | 65 3 | 43.1 2.1 | ENE | 62 | 0.5 0.3 | 2.0 0.0 | 0 0 | 1,015.9 3.3 | 53.4 2.4 | 59.9 1.6 | 4.2 1.3 | 0.00 | 47.1 | 91.1 | 21.5 | 0.00 | 12.4 0.0 |
| MWA OPS | 5/8/26 | 0415 | 57.3 3.4 | 52 12 | 40.1 2.2 | SSW | 209 | 3.1 0.2 | 7.0 1.8 | 0 0 | 1,014.7 2.8 | 54.8 1.4 | 59.3 2.5 | 7.9 1.3 | 0.00 | 50.4 | 89.5 | 21.3 | 0.00 | 12.8 0.0 |
| LV-PS | 5/8/26 | 0415 | 63.2 5.4 | 37 7 | 36.5 0.5 | WNW | 284 | 5.1 2.0 | 9.4 5.0 | 0 0 | 1,012.9 3.7 | 61.6 3.9 | 65.1 3.0 | 9.6 3.3 | 0.00 | 53.2 | 89.8 | 23.9 | 0.00 | 12.8 0.0 |
| JV-PS | 5/8/26 | 0415 | 70.6 13.4 | 26 10 | 34.2 3.8 | WNW | 291 | 10.2 8.5 | 18.0 13.8 | 0 0 | 1,010.9 5.5 | 68.8 15.5 | 71.8 10.1 | 20.0 15.1 | 0.00 | 51.8 | 90.0 | 22.1 | 0.00 | 12.9 0.0 |
| BDVWA | 5/8/26 | 0415 | 69.2 4.4 | 19 10 | 25.1 6.8 | WSW | 251 | 4.4 0.2 | 10.1 2.0 | 0 0 | 1,010.4 3.6 | 68.5 5.8 | 72.5 6.2 | 16.4 6.4 | 0.00 | 62.7 | 86.3 | 26.3 | 0.00 | 12.9 0.0 |
| Newberry Springs | 5/8/26 | 0415 | 70.1 5.6 | 39 9 | 43.7 0.4 | N | 355 | 11.7 5.6 | 18.0 7.0 | 0 0 | 1,010.7 4.1 | 69.6 5.3 | 80.4 11.2 | 28.7 13.6 | 0.00 | 62.1 | 95.3 | 35.7 | 0.00 | 12.9 0.0 |
| Pinon Hills | 5/8/26 | 0415 | 64.0 0.6 | 22 9 | 24.4 7.7 | WSW | 249 | 2.8 6.5 | 9.0 3.9 | 0 0 | 1,012.3 1.7 | 56.1 3.8 | 68.0 3.9 | 16.9 2.0 | 0.00 | 57.6 | 81.0 | 25.2 | 0.00 | 12.9 0.0 |
| Helendale | 5/8/26 | 0415 | 62.9 9.5 | 52 14 | 45.3 2.9 | S | 190 | 7.0 5.3 | 9.9 5.9 | 0 0 | 1,012.9 4.2 | 62.1 10.0 | 70.1 6.3 | 13.2 5.0 | 0.00 | 49.2 | 93.3 | 29.2 | 0.00 | 12.8 0.0 |
| Lenwood | 5/8/26 | 0415 | 66.0 13.6 | 44 20 | 43.6 2.8 | WNW | 290 | 3.6 1.9 | 6.4 3.3 | 0 0 | 1,012.5 4.7 | 62.5 10.1 | 68.7 6.5 | 10.1 5.7 | 0.00 | 48.4 | 93.9 | 25.4 | 0.00 | 12.8 0.0 |
| Oak Hills | 5/8/26 | 0415 | 59.5 6.5 | 56 4 | 43.8 4.2 | SW | 217 | 5.4 4.2 | 7.9 5.7 | 0 0 | 1,014.0 3.7 | 57.5 5.5 | 61.6 4.5 | 14.0 8.1 | 0.00 | 51.6 | 81.9 | 18.2 | 0.00 | 13.0 0.0 |
| Pipes Wash Canyon | 5/8/26 | 0415 | 63.4 7.4 | 17 17 | 17.6 10.4 | WSW | 252 | 1.4 2.4 | 4.8 2.0 | 0 0 | 1,011.2 4.5 | 63.2 7.2 | 70.3 7.4 | 14.5 4.4 | 0.00 | 56.0 | 82.9 | 31.1 | 0.00 | 12.9 0.0 |
| Max | 70.6 | 65 | 45.3 | - | 11.7 | 18.0 | 0 | 1,015.9 | 69.6 | 80.4 | 28.7 | 0.00 | 62.7 | 95.3 | 35.7 | 0.00 | 13.0 | ||
| Avg | 63.7 | 39 | 36.1 | - | 5.0 | 9.3 | 0 | 1,012.6 | - | - | - | - | - | - | - | - | - | ||
| Min | 54.5 | 17 | 17.6 | - | 0.5 | 2.0 | 0 | 1,010.4 | 53.4 | 59.3 | 4.2 | 0.00 | 47.1 | 81.0 | 18.2 | 0.00 | 12.4 |
| Station | Date | Time | Latest Rain (In) | Daily Rain (In) | Yest Precip (In) | Month Precip (In) | Season Precip (In) | Daily ETo (in) | Yest ETo (In) | 7 Day ETo (in) |
|---|---|---|---|---|---|---|---|---|---|---|
| MWA Office | 5/8/26 | 0415 | 0.00 | 0.00 | 0.00 | 0.00 | 4.30 | 0.000 | 0.26 | 1.57 |
| MWA OPS | 5/8/26 | 0415 | 0.00 | 0.00 | 0.00 | 0.00 | 9.32 | 0.000 | 0.26 | 1.59 |
| LV-PS | 5/8/26 | 0415 | 0.00 | 0.00 | 0.00 | 0.00 | 3.63 | 0.004 | 0.29 | 1.81 |
| JV-PS | 5/8/26 | 0415 | 0.00 | 0.00 | 0.00 | 0.02 | 6.39 | 0.010 | 0.30 | 1.85 |
| BDVWA | 5/8/26 | 0415 | 0.00 | 0.00 | 0.00 | 0.03 | 6.39 | 0.012 | 0.32 | 1.76 |
| Newberry Springs | 5/8/26 | 0415 | 0.00 | 0.00 | 0.00 | 0.00 | 2.70 | 0.016 | 0.36 | 2.01 |
| Pinon Hills | 5/8/26 | 0415 | 0.00 | 0.00 | 0.00 | 0.00 | 15.51 | 0.005 | 0.28 | 1.53 |
| Helendale | 5/8/26 | 0415 | 0.00 | 0.00 | 0.00 | 0.00 | 5.55 | 0.006 | 0.30 | 1.78 |
| Lenwood | 5/8/26 | 0415 | 0.00 | 0.00 | 0.00 | 0.00 | 4.24 | 0.004 | 0.30 | 1.86 |
| Oak Hills | 5/8/26 | 0415 | 0.00 | 0.00 | 0.00 | 0.00 | 14.72 | 0.002 | 0.25 | 1.35 |
| Pipes Wash Canyon | 5/8/26 | 0415 | 0.00 | 0.00 | 0.00 | 0.00 | 13.92 | 0.008 | 0.27 | 1.49 |
| Max | 0.00 | 0.00 | 0.00 | 0.03 | 15.51 | 0.016 | 0.36 | 2.01 | ||
| Avg | 0.00 | - | - | - | - | - | - | - | ||
| Min | 0.00 | 0.00 | 0.00 | 0.00 | 2.70 | 0.000 | 0.25 | 1.35 |